sensor_id;sensor_type;location;lat;lon;timestamp;pressure;altitude;pressure_sealevel;temperature;humidity
65013;BME280;51715;39.432;-77.518;2022-07-29T00:00:08;99120.43;;;33.54;30.96
65013;BME280;51715;39.432;-77.518;2022-07-29T00:02:37;99128.94;;;33.23;30.66
65013;BME280;51715;39.432;-77.518;2022-07-29T00:05:09;99130.24;;;33.74;30.32
65013;BME280;51715;39.432;-77.518;2022-07-29T00:07:39;99132.95;;;33.09;30.41
65013;BME280;51715;39.432;-77.518;2022-07-29T00:10:07;99142.34;;;33.32;30.64
65013;BME280;51715;39.432;-77.518;2022-07-29T00:12:35;99148.64;;;33.01;30.67
65013;BME280;51715;39.432;-77.518;2022-07-29T00:15:11;99151.70;;;33.29;31.16
65013;BME280;51715;39.432;-77.518;2022-07-29T00:17:39;99152.69;;;33.14;30.72
65013;BME280;51715;39.432;-77.518;2022-07-29T00:20:08;99160.68;;;32.72;31.37
65013;BME280;51715;39.432;-77.518;2022-07-29T00:22:37;99159.95;;;32.92;31.69
65013;BME280;51715;39.432;-77.518;2022-07-29T00:25:07;99158.17;;;32.82;31.36
65013;BME280;51715;39.432;-77.518;2022-07-29T00:27:37;99160.43;;;32.68;31.80
65013;BME280;51715;39.432;-77.518;2022-07-29T00:30:06;99158.04;;;32.62;31.43
65013;BME280;51715;39.432;-77.518;2022-07-29T00:32:35;99155.17;;;32.19;31.54
65013;BME280;51715;39.432;-77.518;2022-07-29T00:35:04;99166.19;;;32.27;31.15
65013;BME280;51715;39.432;-77.518;2022-07-29T00:37:34;99165.43;;;32.32;31.70
65013;BME280;51715;39.432;-77.518;2022-07-29T00:40:03;99164.10;;;32.19;31.76
65013;BME280;51715;39.432;-77.518;2022-07-29T00:42:42;99165.45;;;32.08;31.68
65013;BME280;51715;39.432;-77.518;2022-07-29T00:45:12;99168.86;;;31.91;32.41
65013;BME280;51715;39.432;-77.518;2022-07-29T00:47:41;99174.56;;;32.21;33.34
65013;BME280;51715;39.432;-77.518;2022-07-29T00:50:11;99179.74;;;32.08;32.90
65013;BME280;51715;39.432;-77.518;2022-07-29T00:52:40;99177.86;;;31.48;32.18
65013;BME280;51715;39.432;-77.518;2022-07-29T00:55:12;99179.45;;;31.69;32.71
65013;BME280;51715;39.432;-77.518;2022-07-29T00:57:42;99187.52;;;31.38;33.89
65013;BME280;51715;39.432;-77.518;2022-07-29T01:00:15;99195.48;;;31.36;33.32
65013;BME280;51715;39.432;-77.518;2022-07-29T01:02:44;99199.38;;;31.15;33.79
65013;BME280;51715;39.432;-77.518;2022-07-29T01:05:16;99201.64;;;31.18;34.68
65013;BME280;51715;39.432;-77.518;2022-07-29T01:07:46;99206.94;;;30.43;35.06
65013;BME280;51715;39.432;-77.518;2022-07-29T01:10:16;99215.97;;;30.72;34.26
65013;BME280;51715;39.432;-77.518;2022-07-29T01:12:49;99220.27;;;30.61;34.20
65013;BME280;51715;39.432;-77.518;2022-07-29T01:15:19;99229.58;;;31.33;34.18
65013;BME280;51715;39.432;-77.518;2022-07-29T01:18:03;99220.46;;;30.40;35.37
65013;BME280;51715;39.432;-77.518;2022-07-29T01:20:46;99232.51;;;30.07;34.95
65013;BME280;51715;39.432;-77.518;2022-07-29T01:23:47;99229.50;;;30.17;35.88
65013;BME280;51715;39.432;-77.518;2022-07-29T01:26:33;99237.97;;;30.26;35.38
65013;BME280;51715;39.432;-77.518;2022-07-29T01:29:06;99250.23;;;30.14;35.46
65013;BME280;51715;39.432;-77.518;2022-07-29T01:31:47;99257.01;;;30.34;34.72
65013;BME280;51715;39.432;-77.518;2022-07-29T01:34:20;99266.12;;;30.05;35.50
65013;BME280;51715;39.432;-77.518;2022-07-29T01:36:54;99278.85;;;29.75;35.64
65013;BME280;51715;39.432;-77.518;2022-07-29T01:39:31;99288.37;;;30.30;35.34
65013;BME280;51715;39.432;-77.518;2022-07-29T01:42:10;99293.22;;;29.70;35.89
65013;BME280;51715;39.432;-77.518;2022-07-29T01:44:46;99298.26;;;29.83;35.86
65013;BME280;51715;39.432;-77.518;2022-07-29T01:47:23;99299.02;;;29.73;35.88
65013;BME280;51715;39.432;-77.518;2022-07-29T01:49:56;99302.31;;;29.74;35.67
65013;BME280;51715;39.432;-77.518;2022-07-29T01:52:31;99304.57;;;29.68;35.92
65013;BME280;51715;39.432;-77.518;2022-07-29T01:55:04;99307.40;;;29.74;36.20
65013;BME280;51715;39.432;-77.518;2022-07-29T01:57:38;99313.49;;;29.80;36.08
65013;BME280;51715;39.432;-77.518;2022-07-29T02:00:08;99317.67;;;29.77;36.19
65013;BME280;51715;39.432;-77.518;2022-07-29T02:02:39;99323.63;;;29.49;36.82
65013;BME280;51715;39.432;-77.518;2022-07-29T02:05:13;99326.17;;;29.67;36.52
65013;BME280;51715;39.432;-77.518;2022-07-29T02:07:43;99330.58;;;29.49;36.80
65013;BME280;51715;39.432;-77.518;2022-07-29T02:10:15;99322.97;;;29.40;36.69
65013;BME280;51715;39.432;-77.518;2022-07-29T02:12:46;99322.16;;;29.28;37.52
65013;BME280;51715;39.432;-77.518;2022-07-29T02:15:17;99324.72;;;28.85;37.41
65013;BME280;51715;39.432;-77.518;2022-07-29T02:17:50;99325.59;;;29.32;37.48
65013;BME280;51715;39.432;-77.518;2022-07-29T02:20:20;99326.83;;;28.93;37.13
65013;BME280;51715;39.432;-77.518;2022-07-29T02:22:52;99329.73;;;29.47;37.05
65013;BME280;51715;39.432;-77.518;2022-07-29T02:25:22;99328.87;;;29.16;37.07
65013;BME280;51715;39.432;-77.518;2022-07-29T02:27:52;99330.30;;;29.16;37.18
65013;BME280;51715;39.432;-77.518;2022-07-29T02:30:24;99330.74;;;29.01;37.30
65013;BME280;51715;39.432;-77.518;2022-07-29T02:32:54;99332.39;;;29.17;37.53
65013;BME280;51715;39.432;-77.518;2022-07-29T02:35:23;99336.13;;;28.96;37.64
65013;BME280;51715;39.432;-77.518;2022-07-29T02:37:53;99336.02;;;28.81;37.83
65013;BME280;51715;39.432;-77.518;2022-07-29T02:40:21;99333.77;;;28.83;37.73
65013;BME280;51715;39.432;-77.518;2022-07-29T02:42:51;99336.13;;;28.83;37.50
65013;BME280;51715;39.432;-77.518;2022-07-29T02:45:19;99336.78;;;28.84;37.49
65013;BME280;51715;39.432;-77.518;2022-07-29T02:47:50;99332.03;;;28.66;37.92
65013;BME280;51715;39.432;-77.518;2022-07-29T02:50:22;99331.63;;;28.66;37.83
65013;BME280;51715;39.432;-77.518;2022-07-29T02:53:00;99331.69;;;28.45;38.28
65013;BME280;51715;39.432;-77.518;2022-07-29T02:55:33;99328.69;;;28.68;38.53
65013;BME280;51715;39.432;-77.518;2022-07-29T02:58:05;99324.66;;;28.10;39.25
65013;BME280;51715;39.432;-77.518;2022-07-29T03:00:39;99327.24;;;27.84;39.33
65013;BME280;51715;39.432;-77.518;2022-07-29T03:03:23;99324.61;;;27.56;39.48
65013;BME280;51715;39.432;-77.518;2022-07-29T03:05:55;99323.84;;;27.81;39.02
65013;BME280;51715;39.432;-77.518;2022-07-29T03:08:25;99322.29;;;28.07;38.36
65013;BME280;51715;39.432;-77.518;2022-07-29T03:10:55;99317.73;;;28.04;38.36
65013;BME280;51715;39.432;-77.518;2022-07-29T03:13:24;99311.25;;;28.15;38.29
65013;BME280;51715;39.432;-77.518;2022-07-29T03:15:55;99311.66;;;27.97;38.48
65013;BME280;51715;39.432;-77.518;2022-07-29T03:18:26;99316.29;;;28.25;38.55
65013;BME280;51715;39.432;-77.518;2022-07-29T03:20:55;99321.10;;;28.02;38.13
65013;BME280;51715;39.432;-77.518;2022-07-29T03:23:24;99323.66;;;28.04;38.00
65013;BME280;51715;39.432;-77.518;2022-07-29T03:25:53;99324.42;;;28.04;38.17
65013;BME280;51715;39.432;-77.518;2022-07-29T03:28:23;99323.60;;;28.11;38.28
65013;BME280;51715;39.432;-77.518;2022-07-29T03:30:51;99329.62;;;28.30;38.36
65013;BME280;51715;39.432;-77.518;2022-07-29T03:33:19;99338.38;;;27.87;38.39
65013;BME280;51715;39.432;-77.518;2022-07-29T03:35:48;99340.99;;;27.94;38.08
65013;BME280;51715;39.432;-77.518;2022-07-29T03:38:16;99344.72;;;27.84;38.44
65013;BME280;51715;39.432;-77.518;2022-07-29T03:40:48;99346.33;;;27.71;38.36
65013;BME280;51715;39.432;-77.518;2022-07-29T03:43:19;99353.35;;;27.73;38.32
65013;BME280;51715;39.432;-77.518;2022-07-29T03:45:51;99360.06;;;27.78;38.09
65013;BME280;51715;39.432;-77.518;2022-07-29T03:48:22;99359.82;;;27.81;38.05
65013;BME280;51715;39.432;-77.518;2022-07-29T03:50:52;99361.01;;;27.84;38.21
65013;BME280;51715;39.432;-77.518;2022-07-29T03:53:21;99355.28;;;27.76;38.16
65013;BME280;51715;39.432;-77.518;2022-07-29T03:55:54;99349.13;;;28.09;38.50
65013;BME280;51715;39.432;-77.518;2022-07-29T03:58:27;99350.46;;;27.72;38.34
65013;BME280;51715;39.432;-77.518;2022-07-29T04:03:56;99351.76;;;27.90;37.37
65013;BME280;51715;39.432;-77.518;2022-07-29T04:06:25;99351.21;;;28.13;37.62
65013;BME280;51715;39.432;-77.518;2022-07-29T04:08:54;99353.78;;;27.45;38.16
65013;BME280;51715;39.432;-77.518;2022-07-29T04:11:22;99357.82;;;27.67;38.35
65013;BME280;51715;39.432;-77.518;2022-07-29T04:13:51;99359.60;;;27.99;38.46
65013;BME280;51715;39.432;-77.518;2022-07-29T04:16:19;99357.03;;;27.57;38.67
65013;BME280;51715;39.432;-77.518;2022-07-29T04:18:47;99360.09;;;27.70;38.95
65013;BME280;51715;39.432;-77.518;2022-07-29T04:21:14;99362.26;;;27.60;39.20
65013;BME280;51715;39.432;-77.518;2022-07-29T04:23:43;99361.70;;;27.51;39.51
65013;BME280;51715;39.432;-77.518;2022-07-29T04:26:11;99362.79;;;27.49;39.34
65013;BME280;51715;39.432;-77.518;2022-07-29T04:28:41;99364.69;;;27.43;39.59
65013;BME280;51715;39.432;-77.518;2022-07-29T04:31:10;99367.34;;;27.36;39.77
65013;BME280;51715;39.432;-77.518;2022-07-29T04:33:39;99362.23;;;27.05;40.09
65013;BME280;51715;39.432;-77.518;2022-07-29T04:36:08;99358.67;;;27.04;40.29
65013;BME280;51715;39.432;-77.518;2022-07-29T04:38:36;99361.71;;;27.18;40.28
65013;BME280;51715;39.432;-77.518;2022-07-29T04:41:05;99366.45;;;27.31;40.02
65013;BME280;51715;39.432;-77.518;2022-07-29T04:43:34;99359.94;;;27.22;40.19
65013;BME280;51715;39.432;-77.518;2022-07-29T04:46:03;99356.67;;;27.12;40.20
65013;BME280;51715;39.432;-77.518;2022-07-29T04:48:32;99363.75;;;27.20;40.16
65013;BME280;51715;39.432;-77.518;2022-07-29T04:51:00;99364.23;;;26.92;39.93
65013;BME280;51715;39.432;-77.518;2022-07-29T04:53:29;99366.23;;;27.44;39.47
65013;BME280;51715;39.432;-77.518;2022-07-29T04:55:57;99364.18;;;27.30;39.56
65013;BME280;51715;39.432;-77.518;2022-07-29T04:58:26;99360.15;;;27.27;40.24
65013;BME280;51715;39.432;-77.518;2022-07-29T05:00:54;99362.26;;;27.22;40.47
65013;BME280;51715;39.432;-77.518;2022-07-29T05:03:23;99365.54;;;27.28;40.18
65013;BME280;51715;39.432;-77.518;2022-07-29T05:05:51;99364.19;;;27.26;40.21
65013;BME280;51715;39.432;-77.518;2022-07-29T05:08:19;99359.84;;;27.22;40.30
65013;BME280;51715;39.432;-77.518;2022-07-29T05:10:47;99357.63;;;27.29;40.28
65013;BME280;51715;39.432;-77.518;2022-07-29T05:13:15;99350.14;;;27.34;40.12
65013;BME280;51715;39.432;-77.518;2022-07-29T05:15:43;99343.73;;;27.31;40.42
65013;BME280;51715;39.432;-77.518;2022-07-29T05:18:11;99340.21;;;27.16;40.60
65013;BME280;51715;39.432;-77.518;2022-07-29T05:20:40;99344.97;;;27.05;40.39
65013;BME280;51715;39.432;-77.518;2022-07-29T05:23:08;99342.53;;;27.32;40.38
65013;BME280;51715;39.432;-77.518;2022-07-29T05:25:37;99342.16;;;27.34;40.31
65013;BME280;51715;39.432;-77.518;2022-07-29T05:28:06;99344.10;;;27.33;40.33
65013;BME280;51715;39.432;-77.518;2022-07-29T05:30:35;99343.32;;;27.16;40.20
65013;BME280;51715;39.432;-77.518;2022-07-29T05:33:04;99341.84;;;27.34;40.47
65013;BME280;51715;39.432;-77.518;2022-07-29T05:35:32;99341.94;;;27.18;40.41
65013;BME280;51715;39.432;-77.518;2022-07-29T05:38:01;99339.22;;;27.22;40.45
65013;BME280;51715;39.432;-77.518;2022-07-29T05:40:29;99335.31;;;27.20;40.61
65013;BME280;51715;39.432;-77.518;2022-07-29T05:42:58;99332.36;;;27.53;40.55
65013;BME280;51715;39.432;-77.518;2022-07-29T05:45:27;99333.72;;;26.77;40.66
65013;BME280;51715;39.432;-77.518;2022-07-29T05:47:55;99333.86;;;27.23;40.40
65013;BME280;51715;39.432;-77.518;2022-07-29T05:50:23;99330.41;;;27.30;41.02
65013;BME280;51715;39.432;-77.518;2022-07-29T05:52:52;99326.49;;;26.95;41.12
65013;BME280;51715;39.432;-77.518;2022-07-29T05:55:20;99324.52;;;27.04;40.80
65013;BME280;51715;39.432;-77.518;2022-07-29T05:57:48;99319.73;;;26.70;41.60
65013;BME280;51715;39.432;-77.518;2022-07-29T06:00:17;99320.98;;;27.16;41.29
65013;BME280;51715;39.432;-77.518;2022-07-29T06:02:45;99325.51;;;26.95;41.19
65013;BME280;51715;39.432;-77.518;2022-07-29T06:05:14;99325.73;;;26.97;41.09
65013;BME280;51715;39.432;-77.518;2022-07-29T06:07:42;99315.47;;;26.89;41.23
65013;BME280;51715;39.432;-77.518;2022-07-29T06:10:10;99312.21;;;27.08;41.85
65013;BME280;51715;39.432;-77.518;2022-07-29T06:12:39;99315.55;;;26.57;42.35
65013;BME280;51715;39.432;-77.518;2022-07-29T06:15:08;99321.31;;;26.64;42.24
65013;BME280;51715;39.432;-77.518;2022-07-29T06:17:36;99327.41;;;26.75;42.04
65013;BME280;51715;39.432;-77.518;2022-07-29T06:20:05;99327.61;;;26.91;41.64
65013;BME280;51715;39.432;-77.518;2022-07-29T06:22:33;99318.96;;;26.89;41.76
65013;BME280;51715;39.432;-77.518;2022-07-29T06:25:02;99319.73;;;26.70;41.72
65013;BME280;51715;39.432;-77.518;2022-07-29T06:27:30;99326.51;;;27.01;41.61
65013;BME280;51715;39.432;-77.518;2022-07-29T06:29:58;99322.70;;;26.73;41.55
65013;BME280;51715;39.432;-77.518;2022-07-29T06:32:26;99321.34;;;26.64;41.88
65013;BME280;51715;39.432;-77.518;2022-07-29T06:34:55;99324.43;;;26.93;41.77
65013;BME280;51715;39.432;-77.518;2022-07-29T06:37:23;99325.62;;;26.44;42.28
65013;BME280;51715;39.432;-77.518;2022-07-29T06:39:51;99329.22;;;26.50;42.11
65013;BME280;51715;39.432;-77.518;2022-07-29T06:42:20;99322.54;;;26.68;42.32
65013;BME280;51715;39.432;-77.518;2022-07-29T06:44:48;99315.41;;;26.75;42.18
65013;BME280;51715;39.432;-77.518;2022-07-29T06:47:17;99314.17;;;26.73;42.08
65013;BME280;51715;39.432;-77.518;2022-07-29T06:49:46;99310.38;;;26.74;42.10
65013;BME280;51715;39.432;-77.518;2022-07-29T06:52:14;99308.99;;;26.88;42.31
65013;BME280;51715;39.432;-77.518;2022-07-29T06:54:42;99304.68;;;26.65;42.34
65013;BME280;51715;39.432;-77.518;2022-07-29T06:57:10;99298.55;;;26.96;42.14
65013;BME280;51715;39.432;-77.518;2022-07-29T06:59:39;99301.13;;;26.83;41.82
65013;BME280;51715;39.432;-77.518;2022-07-29T07:02:07;99300.90;;;26.56;41.86
65013;BME280;51715;39.432;-77.518;2022-07-29T07:04:35;99305.05;;;26.68;41.81
65013;BME280;51715;39.432;-77.518;2022-07-29T07:07:05;99313.58;;;26.94;41.62
65013;BME280;51715;39.432;-77.518;2022-07-29T07:09:33;99313.16;;;26.99;41.93
65013;BME280;51715;39.432;-77.518;2022-07-29T07:12:02;99315.15;;;26.63;42.21
65013;BME280;51715;39.432;-77.518;2022-07-29T07:14:30;99322.08;;;26.69;42.57
65013;BME280;51715;39.432;-77.518;2022-07-29T07:16:58;99326.49;;;26.41;42.71
65013;BME280;51715;39.432;-77.518;2022-07-29T07:19:27;99327.35;;;26.65;42.69
65013;BME280;51715;39.432;-77.518;2022-07-29T07:21:56;99329.45;;;26.67;42.63
65013;BME280;51715;39.432;-77.518;2022-07-29T07:24:24;99332.44;;;26.75;42.89
65013;BME280;51715;39.432;-77.518;2022-07-29T07:26:52;99326.78;;;26.42;43.09
65013;BME280;51715;39.432;-77.518;2022-07-29T07:29:20;99321.93;;;26.55;42.88
65013;BME280;51715;39.432;-77.518;2022-07-29T07:31:48;99321.10;;;26.44;43.04
65013;BME280;51715;39.432;-77.518;2022-07-29T07:34:17;99316.43;;;26.29;43.30
65013;BME280;51715;39.432;-77.518;2022-07-29T07:36:45;99308.94;;;26.23;43.50
65013;BME280;51715;39.432;-77.518;2022-07-29T07:39:13;99311.14;;;26.26;43.42
65013;BME280;51715;39.432;-77.518;2022-07-29T07:41:42;99309.25;;;26.32;43.25
65013;BME280;51715;39.432;-77.518;2022-07-29T07:44:11;99310.71;;;26.33;43.24
65013;BME280;51715;39.432;-77.518;2022-07-29T07:46:40;99312.31;;;26.53;43.48
65013;BME280;51715;39.432;-77.518;2022-07-29T07:49:09;99313.06;;;26.31;43.45
65013;BME280;51715;39.432;-77.518;2022-07-29T07:51:37;99309.29;;;26.37;43.31
65013;BME280;51715;39.432;-77.518;2022-07-29T07:54:05;99312.25;;;26.45;43.17
65013;BME280;51715;39.432;-77.518;2022-07-29T07:56:33;99312.18;;;26.42;43.29
65013;BME280;51715;39.432;-77.518;2022-07-29T07:59:02;99311.74;;;26.46;43.35
65013;BME280;51715;39.432;-77.518;2022-07-29T08:01:30;99309.71;;;26.43;43.30
65013;BME280;51715;39.432;-77.518;2022-07-29T08:03:59;99307.88;;;26.43;43.42
65013;BME280;51715;39.432;-77.518;2022-07-29T08:06:28;99307.99;;;26.41;43.61
65013;BME280;51715;39.432;-77.518;2022-07-29T08:08:57;99305.48;;;26.51;43.36
65013;BME280;51715;39.432;-77.518;2022-07-29T08:11:25;99308.45;;;26.32;43.12
65013;BME280;51715;39.432;-77.518;2022-07-29T08:13:54;99308.85;;;26.64;42.94
65013;BME280;51715;39.432;-77.518;2022-07-29T08:16:23;99307.33;;;26.65;42.85
65013;BME280;51715;39.432;-77.518;2022-07-29T08:18:51;99313.46;;;26.42;42.95
65013;BME280;51715;39.432;-77.518;2022-07-29T08:21:19;99312.23;;;26.27;42.77
65013;BME280;51715;39.432;-77.518;2022-07-29T08:23:48;99316.17;;;26.72;42.49
65013;BME280;51715;39.432;-77.518;2022-07-29T08:26:17;99316.81;;;27.00;42.50
65013;BME280;51715;39.432;-77.518;2022-07-29T08:28:46;99318.06;;;26.94;42.66
65013;BME280;51715;39.432;-77.518;2022-07-29T08:31:14;99313.87;;;26.65;42.72
65013;BME280;51715;39.432;-77.518;2022-07-29T08:33:44;99317.08;;;26.42;43.80
65013;BME280;51715;39.432;-77.518;2022-07-29T08:36:12;99317.21;;;26.46;43.71
65013;BME280;51715;39.432;-77.518;2022-07-29T08:38:40;99320.52;;;26.37;44.12
65013;BME280;51715;39.432;-77.518;2022-07-29T08:41:14;99315.22;;;26.23;43.97
65013;BME280;51715;39.432;-77.518;2022-07-29T08:43:42;99314.63;;;26.58;43.75
65013;BME280;51715;39.432;-77.518;2022-07-29T08:46:11;99311.32;;;26.32;43.74
65013;BME280;51715;39.432;-77.518;2022-07-29T08:48:39;99304.88;;;26.28;44.35
65013;BME280;51715;39.432;-77.518;2022-07-29T08:51:08;99298.82;;;26.38;43.84
65013;BME280;51715;39.432;-77.518;2022-07-29T08:53:42;99295.87;;;26.60;43.64
65013;BME280;51715;39.432;-77.518;2022-07-29T08:56:12;99298.31;;;26.45;42.97
65013;BME280;51715;39.432;-77.518;2022-07-29T08:58:41;99297.81;;;26.96;43.04
65013;BME280;51715;39.432;-77.518;2022-07-29T09:01:09;99301.35;;;26.63;43.23
65013;BME280;51715;39.432;-77.518;2022-07-29T09:03:38;99304.63;;;27.09;42.93
65013;BME280;51715;39.432;-77.518;2022-07-29T09:06:08;99309.34;;;27.13;42.94
65013;BME280;51715;39.432;-77.518;2022-07-29T09:08:37;99313.27;;;27.06;43.21
65013;BME280;51715;39.432;-77.518;2022-07-29T09:11:05;99319.37;;;26.94;43.07
65013;BME280;51715;39.432;-77.518;2022-07-29T09:13:33;99327.86;;;27.14;42.78
65013;BME280;51715;39.432;-77.518;2022-07-29T09:16:01;99330.79;;;27.31;42.56
65013;BME280;51715;39.432;-77.518;2022-07-29T09:18:39;99331.57;;;27.46;42.22
65013;BME280;51715;39.432;-77.518;2022-07-29T09:21:11;99331.48;;;27.38;41.75
65013;BME280;51715;39.432;-77.518;2022-07-29T09:23:39;99328.79;;;27.50;41.52
65013;BME280;51715;39.432;-77.518;2022-07-29T09:26:08;99329.00;;;27.51;41.47
65013;BME280;51715;39.432;-77.518;2022-07-29T09:28:42;99329.37;;;27.52;41.33
65013;BME280;51715;39.432;-77.518;2022-07-29T09:31:15;99333.07;;;27.76;41.40
65013;BME280;51715;39.432;-77.518;2022-07-29T09:33:43;99329.19;;;27.37;41.40
65013;BME280;51715;39.432;-77.518;2022-07-29T09:36:12;99322.50;;;27.77;41.37
65013;BME280;51715;39.432;-77.518;2022-07-29T09:38:40;99322.19;;;27.66;41.69
65013;BME280;51715;39.432;-77.518;2022-07-29T09:41:09;99318.76;;;27.66;41.75
65013;BME280;51715;39.432;-77.518;2022-07-29T09:43:37;99316.91;;;27.32;42.00
65013;BME280;51715;39.432;-77.518;2022-07-29T09:46:13;99317.50;;;27.56;42.18
65013;BME280;51715;39.432;-77.518;2022-07-29T09:48:41;99318.99;;;27.15;42.15
65013;BME280;51715;39.432;-77.518;2022-07-29T09:51:18;99319.12;;;27.76;41.81
65013;BME280;51715;39.432;-77.518;2022-07-29T09:53:46;99320.34;;;27.42;41.57
65013;BME280;51715;39.432;-77.518;2022-07-29T09:56:14;99322.99;;;27.44;41.42
65013;BME280;51715;39.432;-77.518;2022-07-29T09:58:43;99325.90;;;27.67;41.58
65013;BME280;51715;39.432;-77.518;2022-07-29T10:01:12;99330.08;;;27.77;41.46
65013;BME280;51715;39.432;-77.518;2022-07-29T10:03:51;99330.59;;;27.61;41.44
65013;BME280;51715;39.432;-77.518;2022-07-29T10:06:20;99334.78;;;27.39;41.61
65013;BME280;51715;39.432;-77.518;2022-07-29T10:08:48;99339.81;;;27.71;41.80
65013;BME280;51715;39.432;-77.518;2022-07-29T10:11:18;99342.06;;;27.68;41.93
65013;BME280;51715;39.432;-77.518;2022-07-29T10:13:48;99344.44;;;27.79;42.15
65013;BME280;51715;39.432;-77.518;2022-07-29T10:16:17;99345.57;;;27.51;42.57
65013;BME280;51715;39.432;-77.518;2022-07-29T10:18:45;99344.41;;;28.01;42.27
65013;BME280;51715;39.432;-77.518;2022-07-29T10:21:14;99342.45;;;28.10;41.94
65013;BME280;51715;39.432;-77.518;2022-07-29T10:23:44;99344.57;;;27.88;41.63
65013;BME280;51715;39.432;-77.518;2022-07-29T10:26:13;99344.97;;;27.74;41.59
65013;BME280;51715;39.432;-77.518;2022-07-29T10:28:43;99346.12;;;28.16;41.68
65013;BME280;51715;39.432;-77.518;2022-07-29T10:31:15;99351.36;;;27.67;41.91
65013;BME280;51715;39.432;-77.518;2022-07-29T10:33:55;99353.54;;;28.07;42.08
65013;BME280;51715;39.432;-77.518;2022-07-29T10:36:40;99359.82;;;28.03;42.18
65013;BME280;51715;39.432;-77.518;2022-07-29T10:39:21;99362.71;;;28.00;42.12
65013;BME280;51715;39.432;-77.518;2022-07-29T10:42:04;99364.85;;;28.01;42.20
65013;BME280;51715;39.432;-77.518;2022-07-29T10:44:35;99363.25;;;28.09;42.30
65013;BME280;51715;39.432;-77.518;2022-07-29T10:47:08;99362.78;;;28.17;42.15
65013;BME280;51715;39.432;-77.518;2022-07-29T10:49:56;99358.26;;;27.95;42.18
65013;BME280;51715;39.432;-77.518;2022-07-29T10:52:24;99359.34;;;28.07;42.27
65013;BME280;51715;39.432;-77.518;2022-07-29T10:54:53;99362.98;;;28.06;42.41
65013;BME280;51715;39.432;-77.518;2022-07-29T10:57:24;99361.82;;;28.03;42.50
65013;BME280;51715;39.432;-77.518;2022-07-29T11:00:28;99362.92;;;28.12;42.53
65013;BME280;51715;39.432;-77.518;2022-07-29T11:02:57;99372.51;;;28.21;42.25
65013;BME280;51715;39.432;-77.518;2022-07-29T11:05:26;99374.04;;;28.41;42.44
65013;BME280;51715;39.432;-77.518;2022-07-29T11:09:15;99372.57;;;27.92;42.60
65013;BME280;51715;39.432;-77.518;2022-07-29T11:11:44;99374.39;;;28.26;42.15
65013;BME280;51715;39.432;-77.518;2022-07-29T11:14:12;99374.03;;;28.76;42.07
65013;BME280;51715;39.432;-77.518;2022-07-29T11:17:12;99370.98;;;28.58;42.09
65013;BME280;51715;39.432;-77.518;2022-07-29T11:19:40;99376.76;;;28.50;42.05
65013;BME280;51715;39.432;-77.518;2022-07-29T11:22:10;99384.73;;;28.54;42.47
65013;BME280;51715;39.432;-77.518;2022-07-29T11:24:39;99392.02;;;28.58;42.69
65013;BME280;51715;39.432;-77.518;2022-07-29T11:27:13;99396.97;;;28.65;42.25
65013;BME280;51715;39.432;-77.518;2022-07-29T11:29:50;99396.06;;;28.74;42.35
65013;BME280;51715;39.432;-77.518;2022-07-29T11:32:19;99399.07;;;28.62;42.65
65013;BME280;51715;39.432;-77.518;2022-07-29T11:34:49;99403.38;;;28.69;42.11
65013;BME280;51715;39.432;-77.518;2022-07-29T11:37:39;99402.95;;;28.97;42.05
65013;BME280;51715;39.432;-77.518;2022-07-29T11:40:14;99401.69;;;29.02;42.15
65013;BME280;51715;39.432;-77.518;2022-07-29T11:42:45;99398.40;;;29.06;41.63
65013;BME280;51715;39.432;-77.518;2022-07-29T11:45:17;99395.11;;;29.04;41.96
65013;BME280;51715;39.432;-77.518;2022-07-29T11:47:50;99389.71;;;28.59;41.97
65013;BME280;51715;39.432;-77.518;2022-07-29T11:50:29;99395.88;;;28.90;41.86
65013;BME280;51715;39.432;-77.518;2022-07-29T11:52:59;99398.04;;;29.04;41.93
65013;BME280;51715;39.432;-77.518;2022-07-29T11:55:28;99393.02;;;28.71;42.53
65013;BME280;51715;39.432;-77.518;2022-07-29T11:57:59;99390.83;;;28.77;42.83
65013;BME280;51715;39.432;-77.518;2022-07-29T12:00:31;99386.23;;;28.82;42.35
65013;BME280;51715;39.432;-77.518;2022-07-29T12:03:02;99374.67;;;28.86;41.93
65013;BME280;51715;39.432;-77.518;2022-07-29T12:05:33;99373.69;;;28.70;42.45
65013;BME280;51715;39.432;-77.518;2022-07-29T12:08:07;99380.65;;;29.25;42.47
65013;BME280;51715;39.432;-77.518;2022-07-29T12:10:37;99386.10;;;28.93;42.76
65013;BME280;51715;39.432;-77.518;2022-07-29T12:13:07;99390.30;;;29.01;42.43
65013;BME280;51715;39.432;-77.518;2022-07-29T12:15:37;99386.68;;;28.93;42.70
65013;BME280;51715;39.432;-77.518;2022-07-29T12:18:15;99383.52;;;29.29;42.45
65013;BME280;51715;39.432;-77.518;2022-07-29T12:20:44;99379.02;;;29.28;42.80
65013;BME280;51715;39.432;-77.518;2022-07-29T12:23:14;99383.45;;;29.35;42.57
65013;BME280;51715;39.432;-77.518;2022-07-29T12:25:44;99383.42;;;29.17;41.78
65013;BME280;51715;39.432;-77.518;2022-07-29T12:28:14;99394.80;;;29.22;41.74
65013;BME280;51715;39.432;-77.518;2022-07-29T12:30:45;99397.16;;;29.52;42.02
65013;BME280;51715;39.432;-77.518;2022-07-29T12:33:18;99395.38;;;29.41;41.92
65013;BME280;51715;39.432;-77.518;2022-07-29T12:35:51;99397.48;;;29.48;41.59
65013;BME280;51715;39.432;-77.518;2022-07-29T12:38:20;99397.32;;;29.56;41.74
65013;BME280;51715;39.432;-77.518;2022-07-29T12:40:51;99401.52;;;29.64;41.83
65013;BME280;51715;39.432;-77.518;2022-07-29T12:43:22;99401.33;;;29.73;41.04
65013;BME280;51715;39.432;-77.518;2022-07-29T12:45:52;99397.87;;;29.52;41.07
65013;BME280;51715;39.432;-77.518;2022-07-29T12:48:34;99405.05;;;29.86;41.30
65013;BME280;51715;39.432;-77.518;2022-07-29T12:51:05;99412.73;;;29.64;41.72
65013;BME280;51715;39.432;-77.518;2022-07-29T12:53:35;99418.65;;;29.89;42.04
65013;BME280;51715;39.432;-77.518;2022-07-29T12:56:04;99414.09;;;29.85;41.66
65013;BME280;51715;39.432;-77.518;2022-07-29T12:58:35;99415.36;;;29.44;42.05
65013;BME280;51715;39.432;-77.518;2022-07-29T13:01:06;99413.69;;;29.98;41.97